sensor_id;sensor_type;location;lat;lon;timestamp;P1;durP1;ratioP1;P2;durP2;ratioP2
73158;SDS011;61370;48.594;10.202;2022-09-16T00:02:11;13.60;;;8.15;;
73158;SDS011;61370;48.594;10.202;2022-09-16T00:04:38;11.63;;;7.05;;
73158;SDS011;61370;48.594;10.202;2022-09-16T00:07:05;11.93;;;7.70;;
73158;SDS011;61370;48.594;10.202;2022-09-16T00:09:32;13.48;;;7.82;;
73158;SDS011;61370;48.594;10.202;2022-09-16T00:11:59;14.85;;;7.85;;
73158;SDS011;61370;48.594;10.202;2022-09-16T00:14:25;12.10;;;8.05;;
73158;SDS011;61370;48.594;10.202;2022-09-16T00:16:52;12.02;;;8.02;;
73158;SDS011;61370;48.594;10.202;2022-09-16T00:19:18;12.55;;;8.50;;
73158;SDS011;61370;48.594;10.202;2022-09-16T00:21:45;13.18;;;8.15;;
73158;SDS011;61370;48.594;10.202;2022-09-16T00:24:12;12.13;;;8.27;;
73158;SDS011;61370;48.594;10.202;2022-09-16T00:26:41;15.38;;;8.05;;
73158;SDS011;61370;48.594;10.202;2022-09-16T00:29:08;13.75;;;8.38;;
73158;SDS011;61370;48.594;10.202;2022-09-16T00:31:35;13.50;;;8.00;;
73158;SDS011;61370;48.594;10.202;2022-09-16T00:34:01;13.45;;;7.60;;
73158;SDS011;61370;48.594;10.202;2022-09-16T00:36:28;12.80;;;7.80;;
73158;SDS011;61370;48.594;10.202;2022-09-16T00:38:56;14.70;;;9.02;;
73158;SDS011;61370;48.594;10.202;2022-09-16T00:41:23;12.93;;;7.65;;
73158;SDS011;61370;48.594;10.202;2022-09-16T00:43:59;13.18;;;8.35;;
73158;SDS011;61370;48.594;10.202;2022-09-16T00:46:33;13.15;;;7.90;;
73158;SDS011;61370;48.594;10.202;2022-09-16T00:49:04;14.90;;;8.40;;
73158;SDS011;61370;48.594;10.202;2022-09-16T00:51:43;11.93;;;7.18;;
73158;SDS011;61370;48.594;10.202;2022-09-16T00:54:10;11.73;;;7.72;;
73158;SDS011;61370;48.594;10.202;2022-09-16T00:56:38;12.88;;;7.50;;
73158;SDS011;61370;48.594;10.202;2022-09-16T00:59:25;12.27;;;7.60;;
73158;SDS011;61370;48.594;10.202;2022-09-16T01:01:54;16.02;;;8.02;;
73158;SDS011;61370;48.594;10.202;2022-09-16T01:04:23;11.40;;;7.18;;
73158;SDS011;61370;48.594;10.202;2022-09-16T01:06:51;11.48;;;6.93;;
73158;SDS011;61370;48.594;10.202;2022-09-16T01:09:18;14.65;;;7.55;;
73158;SDS011;61370;48.594;10.202;2022-09-16T01:11:46;16.02;;;8.73;;
73158;SDS011;61370;48.594;10.202;2022-09-16T01:14:12;13.93;;;8.05;;
73158;SDS011;61370;48.594;10.202;2022-09-16T01:39:21;13.85;;;7.30;;
73158;SDS011;61370;48.594;10.202;2022-09-16T01:42:14;12.65;;;7.05;;
73158;SDS011;61370;48.594;10.202;2022-09-16T01:47:33;12.68;;;7.00;;
73158;SDS011;61370;48.594;10.202;2022-09-16T01:58:35;12.52;;;6.95;;
73158;SDS011;61370;48.594;10.202;2022-09-16T02:01:20;12.90;;;7.40;;
73158;SDS011;61370;48.594;10.202;2022-09-16T02:03:52;11.93;;;6.82;;
73158;SDS011;61370;48.594;10.202;2022-09-16T02:06:21;12.85;;;7.10;;
73158;SDS011;61370;48.594;10.202;2022-09-16T02:08:54;17.33;;;7.53;;
73158;SDS011;61370;48.594;10.202;2022-09-16T02:11:24;14.85;;;9.15;;
73158;SDS011;61370;48.594;10.202;2022-09-16T02:19:08;9.68;;;6.22;;
73158;SDS011;61370;48.594;10.202;2022-09-16T02:21:38;12.50;;;7.18;;
73158;SDS011;61370;48.594;10.202;2022-09-16T02:24:07;10.75;;;6.55;;
73158;SDS011;61370;48.594;10.202;2022-09-16T02:26:38;12.15;;;7.47;;
73158;SDS011;61370;48.594;10.202;2022-09-16T02:31:34;10.98;;;6.50;;
73158;SDS011;61370;48.594;10.202;2022-09-16T02:34:03;17.58;;;7.53;;
73158;SDS011;61370;48.594;10.202;2022-09-16T02:36:36;13.43;;;7.22;;
73158;SDS011;61370;48.594;10.202;2022-09-16T02:39:06;12.23;;;7.20;;
73158;SDS011;61370;48.594;10.202;2022-09-16T02:44:02;12.27;;;7.22;;
73158;SDS011;61370;48.594;10.202;2022-09-16T02:46:39;14.82;;;7.40;;
73158;SDS011;61370;48.594;10.202;2022-09-16T02:49:37;14.45;;;6.80;;
73158;SDS011;61370;48.594;10.202;2022-09-16T02:57:12;13.60;;;7.78;;
73158;SDS011;61370;48.594;10.202;2022-09-16T02:59:39;13.65;;;7.10;;
73158;SDS011;61370;48.594;10.202;2022-09-16T03:02:06;10.82;;;6.88;;
73158;SDS011;61370;48.594;10.202;2022-09-16T03:04:34;13.32;;;7.32;;
73158;SDS011;61370;48.594;10.202;2022-09-16T03:07:02;13.05;;;7.70;;
73158;SDS011;61370;48.594;10.202;2022-09-16T03:09:30;12.07;;;7.82;;
73158;SDS011;61370;48.594;10.202;2022-09-16T03:14:46;12.88;;;8.07;;
73158;SDS011;61370;48.594;10.202;2022-09-16T03:25:38;15.70;;;8.18;;
73158;SDS011;61370;48.594;10.202;2022-09-16T03:28:13;15.52;;;8.43;;
73158;SDS011;61370;48.594;10.202;2022-09-16T03:33:33;14.88;;;8.00;;
73158;SDS011;61370;48.594;10.202;2022-09-16T03:36:03;15.57;;;8.45;;
73158;SDS011;61370;48.594;10.202;2022-09-16T03:38:31;17.02;;;8.15;;
73158;SDS011;61370;48.594;10.202;2022-09-16T03:40:58;14.18;;;8.55;;
73158;SDS011;61370;48.594;10.202;2022-09-16T03:43:27;15.05;;;8.93;;
73158;SDS011;61370;48.594;10.202;2022-09-16T03:45:53;13.23;;;8.00;;
73158;SDS011;61370;48.594;10.202;2022-09-16T03:48:19;15.63;;;8.38;;
73158;SDS011;61370;48.594;10.202;2022-09-16T03:50:46;13.70;;;8.18;;
73158;SDS011;61370;48.594;10.202;2022-09-16T03:53:13;15.98;;;8.15;;
73158;SDS011;61370;48.594;10.202;2022-09-16T03:55:39;14.27;;;8.38;;
73158;SDS011;61370;48.594;10.202;2022-09-16T03:58:06;15.32;;;8.02;;
73158;SDS011;61370;48.594;10.202;2022-09-16T04:00:32;14.52;;;8.80;;
73158;SDS011;61370;48.594;10.202;2022-09-16T04:02:59;13.63;;;8.38;;
73158;SDS011;61370;48.594;10.202;2022-09-16T04:05:26;16.40;;;8.77;;
73158;SDS011;61370;48.594;10.202;2022-09-16T04:07:53;13.18;;;7.57;;
73158;SDS011;61370;48.594;10.202;2022-09-16T04:10:19;14.57;;;9.15;;
73158;SDS011;61370;48.594;10.202;2022-09-16T04:12:45;15.73;;;9.23;;
73158;SDS011;61370;48.594;10.202;2022-09-16T04:15:12;15.48;;;9.20;;
73158;SDS011;61370;48.594;10.202;2022-09-16T04:17:38;17.48;;;9.68;;
73158;SDS011;61370;48.594;10.202;2022-09-16T04:20:05;17.17;;;9.93;;
73158;SDS011;61370;48.594;10.202;2022-09-16T04:22:33;15.05;;;9.23;;
73158;SDS011;61370;48.594;10.202;2022-09-16T04:24:59;21.67;;;9.95;;
73158;SDS011;61370;48.594;10.202;2022-09-16T04:27:26;16.13;;;9.10;;
73158;SDS011;61370;48.594;10.202;2022-09-16T04:29:52;15.65;;;9.00;;
73158;SDS011;61370;48.594;10.202;2022-09-16T04:32:19;17.92;;;9.18;;
73158;SDS011;61370;48.594;10.202;2022-09-16T04:34:46;16.98;;;9.52;;
73158;SDS011;61370;48.594;10.202;2022-09-16T04:37:13;18.23;;;10.07;;
73158;SDS011;61370;48.594;10.202;2022-09-16T04:39:39;17.48;;;10.00;;
73158;SDS011;61370;48.594;10.202;2022-09-16T04:42:06;17.52;;;9.60;;
73158;SDS011;61370;48.594;10.202;2022-09-16T04:44:32;16.40;;;9.55;;
73158;SDS011;61370;48.594;10.202;2022-09-16T04:46:59;20.67;;;9.90;;
73158;SDS011;61370;48.594;10.202;2022-09-16T04:49:26;16.77;;;9.63;;
73158;SDS011;61370;48.594;10.202;2022-09-16T04:51:52;17.20;;;9.63;;
73158;SDS011;61370;48.594;10.202;2022-09-16T04:54:18;20.63;;;11.90;;
73158;SDS011;61370;48.594;10.202;2022-09-16T04:56:45;18.05;;;9.90;;
73158;SDS011;61370;48.594;10.202;2022-09-16T04:59:12;15.10;;;9.05;;
73158;SDS011;61370;48.594;10.202;2022-09-16T05:01:38;17.85;;;9.50;;
73158;SDS011;61370;48.594;10.202;2022-09-16T05:04:05;15.80;;;8.20;;
73158;SDS011;61370;48.594;10.202;2022-09-16T05:06:37;15.95;;;8.77;;
73158;SDS011;61370;48.594;10.202;2022-09-16T05:09:05;18.05;;;10.10;;
73158;SDS011;61370;48.594;10.202;2022-09-16T05:11:34;21.30;;;11.32;;
73158;SDS011;61370;48.594;10.202;2022-09-16T05:14:03;20.95;;;10.75;;
73158;SDS011;61370;48.594;10.202;2022-09-16T05:16:31;19.92;;;11.13;;
73158;SDS011;61370;48.594;10.202;2022-09-16T05:19:05;21.98;;;10.93;;
73158;SDS011;61370;48.594;10.202;2022-09-16T05:21:33;19.42;;;10.35;;
73158;SDS011;61370;48.594;10.202;2022-09-16T05:24:01;15.70;;;8.68;;
73158;SDS011;61370;48.594;10.202;2022-09-16T05:26:31;15.18;;;9.23;;
73158;SDS011;61370;48.594;10.202;2022-09-16T05:29:01;15.77;;;9.00;;
73158;SDS011;61370;48.594;10.202;2022-09-16T05:31:30;18.05;;;8.48;;
73158;SDS011;61370;48.594;10.202;2022-09-16T05:34:03;15.88;;;9.77;;
73158;SDS011;61370;48.594;10.202;2022-09-16T05:36:31;15.18;;;8.93;;
73158;SDS011;61370;48.594;10.202;2022-09-16T05:41:58;15.75;;;9.23;;
73158;SDS011;61370;48.594;10.202;2022-09-16T05:44:25;16.75;;;9.23;;
73158;SDS011;61370;48.594;10.202;2022-09-16T05:47:01;14.88;;;8.68;;
73158;SDS011;61370;48.594;10.202;2022-09-16T05:49:29;12.82;;;8.40;;
73158;SDS011;61370;48.594;10.202;2022-09-16T05:51:58;13.80;;;8.40;;
73158;SDS011;61370;48.594;10.202;2022-09-16T05:54:25;13.63;;;8.13;;
73158;SDS011;61370;48.594;10.202;2022-09-16T05:56:52;15.18;;;7.72;;
73158;SDS011;61370;48.594;10.202;2022-09-16T05:59:18;13.40;;;7.35;;
73158;SDS011;61370;48.594;10.202;2022-09-16T06:01:45;13.88;;;6.82;;
73158;SDS011;61370;48.594;10.202;2022-09-16T06:04:12;12.57;;;7.10;;
73158;SDS011;61370;48.594;10.202;2022-09-16T06:06:40;14.88;;;8.02;;
73158;SDS011;61370;48.594;10.202;2022-09-16T06:09:12;17.58;;;9.55;;
73158;SDS011;61370;48.594;10.202;2022-09-16T06:11:41;17.00;;;9.73;;
73158;SDS011;61370;48.594;10.202;2022-09-16T06:14:09;17.80;;;9.60;;
73158;SDS011;61370;48.594;10.202;2022-09-16T06:16:36;22.52;;;10.10;;
73158;SDS011;61370;48.594;10.202;2022-09-16T06:19:04;21.33;;;11.35;;
73158;SDS011;61370;48.594;10.202;2022-09-16T06:21:38;17.77;;;9.95;;
73158;SDS011;61370;48.594;10.202;2022-09-16T06:24:06;18.23;;;10.32;;
73158;SDS011;61370;48.594;10.202;2022-09-16T06:26:36;14.93;;;8.27;;
73158;SDS011;61370;48.594;10.202;2022-09-16T06:29:05;14.50;;;8.00;;
73158;SDS011;61370;48.594;10.202;2022-09-16T06:31:32;11.40;;;7.60;;
73158;SDS011;61370;48.594;10.202;2022-09-16T06:33:59;14.52;;;8.23;;
73158;SDS011;61370;48.594;10.202;2022-09-16T06:36:29;16.38;;;8.95;;
73158;SDS011;61370;48.594;10.202;2022-09-16T06:38:57;20.48;;;9.93;;
73158;SDS011;61370;48.594;10.202;2022-09-16T06:41:24;16.90;;;9.05;;
73158;SDS011;61370;48.594;10.202;2022-09-16T06:43:50;14.43;;;8.90;;
73158;SDS011;61370;48.594;10.202;2022-09-16T06:46:21;14.85;;;9.15;;
73158;SDS011;61370;48.594;10.202;2022-09-16T06:48:53;14.82;;;8.98;;
73158;SDS011;61370;48.594;10.202;2022-09-16T06:51:23;14.23;;;9.00;;
73158;SDS011;61370;48.594;10.202;2022-09-16T06:53:51;16.25;;;8.70;;
73158;SDS011;61370;48.594;10.202;2022-09-16T06:56:35;16.17;;;8.52;;
73158;SDS011;61370;48.594;10.202;2022-09-16T06:59:10;17.23;;;9.00;;
73158;SDS011;61370;48.594;10.202;2022-09-16T07:01:40;16.30;;;8.60;;
73158;SDS011;61370;48.594;10.202;2022-09-16T07:04:08;13.18;;;8.15;;
73158;SDS011;61370;48.594;10.202;2022-09-16T07:06:39;13.32;;;8.20;;
73158;SDS011;61370;48.594;10.202;2022-09-16T07:09:06;14.18;;;8.00;;
73158;SDS011;61370;48.594;10.202;2022-09-16T07:11:32;15.30;;;8.63;;
73158;SDS011;61370;48.594;10.202;2022-09-16T07:13:59;13.50;;;8.38;;
73158;SDS011;61370;48.594;10.202;2022-09-16T07:16:25;15.82;;;8.32;;
73158;SDS011;61370;48.594;10.202;2022-09-16T07:18:55;14.23;;;8.55;;
73158;SDS011;61370;48.594;10.202;2022-09-16T07:21:24;16.08;;;8.57;;
73158;SDS011;61370;48.594;10.202;2022-09-16T07:23:54;14.25;;;8.50;;
73158;SDS011;61370;48.594;10.202;2022-09-16T07:26:22;16.15;;;7.82;;
73158;SDS011;61370;48.594;10.202;2022-09-16T07:33:46;12.02;;;6.57;;
73158;SDS011;61370;48.594;10.202;2022-09-16T07:36:16;10.13;;;5.65;;
73158;SDS011;61370;48.594;10.202;2022-09-16T07:38:47;11.65;;;6.07;;
73158;SDS011;61370;48.594;10.202;2022-09-16T07:41:14;9.85;;;5.50;;
73158;SDS011;61370;48.594;10.202;2022-09-16T07:43:43;10.43;;;5.88;;
73158;SDS011;61370;48.594;10.202;2022-09-16T07:49:03;9.57;;;5.40;;
73158;SDS011;61370;48.594;10.202;2022-09-16T07:51:31;11.07;;;5.53;;
73158;SDS011;61370;48.594;10.202;2022-09-16T07:54:02;10.60;;;5.80;;
73158;SDS011;61370;48.594;10.202;2022-09-16T07:56:31;11.65;;;5.82;;
73158;SDS011;61370;48.594;10.202;2022-09-16T07:59:00;9.23;;;5.15;;
73158;SDS011;61370;48.594;10.202;2022-09-16T08:01:27;11.77;;;5.95;;
73158;SDS011;61370;48.594;10.202;2022-09-16T08:03:56;8.25;;;3.92;;
73158;SDS011;61370;48.594;10.202;2022-09-16T08:06:24;8.45;;;3.78;;
73158;SDS011;61370;48.594;10.202;2022-09-16T08:08:53;8.10;;;3.83;;
73158;SDS011;61370;48.594;10.202;2022-09-16T08:11:22;5.85;;;2.90;;
73158;SDS011;61370;48.594;10.202;2022-09-16T08:13:48;6.13;;;3.33;;
73158;SDS011;61370;48.594;10.202;2022-09-16T08:16:16;5.43;;;3.20;;
73158;SDS011;61370;48.594;10.202;2022-09-16T08:18:44;6.25;;;3.38;;
73158;SDS011;61370;48.594;10.202;2022-09-16T08:21:14;6.97;;;3.20;;
73158;SDS011;61370;48.594;10.202;2022-09-16T08:23:42;4.45;;;2.42;;
73158;SDS011;61370;48.594;10.202;2022-09-16T08:26:10;4.60;;;2.33;;
73158;SDS011;61370;48.594;10.202;2022-09-16T08:28:39;5.82;;;2.50;;
73158;SDS011;61370;48.594;10.202;2022-09-16T08:31:07;5.93;;;2.63;;
73158;SDS011;61370;48.594;10.202;2022-09-16T08:33:33;7.15;;;2.67;;
73158;SDS011;61370;48.594;10.202;2022-09-16T08:36:02;4.72;;;2.85;;
73158;SDS011;61370;48.594;10.202;2022-09-16T08:38:33;5.85;;;2.60;;
73158;SDS011;61370;48.594;10.202;2022-09-16T08:41:03;5.78;;;2.20;;
73158;SDS011;61370;48.594;10.202;2022-09-16T08:43:43;5.55;;;2.30;;
73158;SDS011;61370;48.594;10.202;2022-09-16T08:46:27;4.53;;;2.30;;
73158;SDS011;61370;48.594;10.202;2022-09-16T08:49:03;5.88;;;2.35;;
73158;SDS011;61370;48.594;10.202;2022-09-16T08:51:35;5.03;;;2.20;;
73158;SDS011;61370;48.594;10.202;2022-09-16T08:56:32;5.25;;;2.70;;
73158;SDS011;61370;48.594;10.202;2022-09-16T08:59:02;6.60;;;2.72;;
73158;SDS011;61370;48.594;10.202;2022-09-16T09:01:43;4.63;;;2.72;;
73158;SDS011;61370;48.594;10.202;2022-09-16T09:04:32;4.75;;;2.40;;
73158;SDS011;61370;48.594;10.202;2022-09-16T09:09:43;5.70;;;2.30;;
73158;SDS011;61370;48.594;10.202;2022-09-16T09:15:12;4.63;;;2.55;;
73158;SDS011;61370;48.594;10.202;2022-09-16T09:26:19;5.65;;;2.85;;
73158;SDS011;61370;48.594;10.202;2022-09-16T09:34:14;5.35;;;2.95;;
73158;SDS011;61370;48.594;10.202;2022-09-16T09:42:28;4.70;;;2.72;;
73158;SDS011;61370;48.594;10.202;2022-09-16T09:51:12;4.47;;;2.67;;
73158;SDS011;61370;48.594;10.202;2022-09-16T09:53:44;5.35;;;3.13;;
73158;SDS011;61370;48.594;10.202;2022-09-16T09:56:17;5.47;;;2.50;;
73158;SDS011;61370;48.594;10.202;2022-09-16T10:01:29;4.25;;;2.40;;
73158;SDS011;61370;48.594;10.202;2022-09-16T10:03:56;5.30;;;2.72;;
73158;SDS011;61370;48.594;10.202;2022-09-16T10:06:28;5.95;;;2.80;;
73158;SDS011;61370;48.594;10.202;2022-09-16T10:08:56;4.47;;;2.70;;
73158;SDS011;61370;48.594;10.202;2022-09-16T10:11:25;4.95;;;2.60;;
73158;SDS011;61370;48.594;10.202;2022-09-16T10:16:43;4.97;;;2.42;;
73158;SDS011;61370;48.594;10.202;2022-09-16T10:19:16;4.07;;;2.53;;
73158;SDS011;61370;48.594;10.202;2022-09-16T10:21:49;4.07;;;2.70;;
73158;SDS011;61370;48.594;10.202;2022-09-16T10:24:35;4.68;;;2.40;;
73158;SDS011;61370;48.594;10.202;2022-09-16T10:27:19;4.80;;;2.83;;
73158;SDS011;61370;48.594;10.202;2022-09-16T10:30:01;4.30;;;2.53;;
73158;SDS011;61370;48.594;10.202;2022-09-16T10:32:57;3.90;;;2.25;;
73158;SDS011;61370;48.594;10.202;2022-09-16T10:35:26;4.60;;;2.45;;
73158;SDS011;61370;48.594;10.202;2022-09-16T10:37:57;4.32;;;2.10;;
73158;SDS011;61370;48.594;10.202;2022-09-16T10:40:28;4.38;;;2.50;;
73158;SDS011;61370;48.594;10.202;2022-09-16T10:42:56;3.85;;;2.15;;
73158;SDS011;61370;48.594;10.202;2022-09-16T10:45:34;3.72;;;2.22;;
73158;SDS011;61370;48.594;10.202;2022-09-16T10:48:06;5.38;;;2.85;;
73158;SDS011;61370;48.594;10.202;2022-09-16T10:50:38;4.53;;;2.42;;
73158;SDS011;61370;48.594;10.202;2022-09-16T10:53:20;4.60;;;2.50;;
73158;SDS011;61370;48.594;10.202;2022-09-16T10:56:15;3.78;;;2.10;;
73158;SDS011;61370;48.594;10.202;2022-09-16T10:58:44;5.03;;;2.63;;
73158;SDS011;61370;48.594;10.202;2022-09-16T11:01:31;4.00;;;2.28;;
73158;SDS011;61370;48.594;10.202;2022-09-16T11:04:39;5.93;;;2.83;;
73158;SDS011;61370;48.594;10.202;2022-09-16T11:07:52;5.82;;;2.45;;
73158;SDS011;61370;48.594;10.202;2022-09-16T11:10:59;5.60;;;2.38;;
73158;SDS011;61370;48.594;10.202;2022-09-16T11:19:09;4.38;;;2.55;;
73158;SDS011;61370;48.594;10.202;2022-09-16T11:40:45;4.50;;;2.30;;
73158;SDS011;61370;48.594;10.202;2022-09-16T11:46:01;3.50;;;1.88;;
73158;SDS011;61370;48.594;10.202;2022-09-16T11:57:05;4.55;;;2.00;;
73158;SDS011;61370;48.594;10.202;2022-09-16T12:05:05;14.15;;;2.70;;
73158;SDS011;61370;48.594;10.202;2022-09-16T12:10:18;5.82;;;2.22;;
73158;SDS011;61370;48.594;10.202;2022-09-16T12:12:52;6.13;;;2.25;;
73158;SDS011;61370;48.594;10.202;2022-09-16T12:15:33;5.03;;;2.50;;
73158;SDS011;61370;48.594;10.202;2022-09-16T12:18:11;4.88;;;2.25;;
73158;SDS011;61370;48.594;10.202;2022-09-16T12:20:44;4.32;;;2.28;;
73158;SDS011;61370;48.594;10.202;2022-09-16T12:23:28;4.65;;;2.20;;
73158;SDS011;61370;48.594;10.202;2022-09-16T12:26:03;5.18;;;2.70;;
73158;SDS011;61370;48.594;10.202;2022-09-16T12:28:35;4.32;;;2.40;;
73158;SDS011;61370;48.594;10.202;2022-09-16T12:34:02;4.63;;;2.60;;
73158;SDS011;61370;48.594;10.202;2022-09-16T12:36:32;5.55;;;2.42;;
73158;SDS011;61370;48.594;10.202;2022-09-16T12:39:00;5.43;;;2.50;;
73158;SDS011;61370;48.594;10.202;2022-09-16T12:55:55;4.70;;;2.60;;
73158;SDS011;61370;48.594;10.202;2022-09-16T13:03:56;7.25;;;3.08;;
73158;SDS011;61370;48.594;10.202;2022-09-16T13:06:27;5.72;;;2.40;;
73158;SDS011;61370;48.594;10.202;2022-09-16T13:08:55;6.78;;;2.72;;
73158;SDS011;61370;48.594;10.202;2022-09-16T13:11:31;4.88;;;2.50;;
73158;SDS011;61370;48.594;10.202;2022-09-16T13:13:57;6.60;;;2.65;;
73158;SDS011;61370;48.594;10.202;2022-09-16T13:16:28;4.35;;;2.50;;
73158;SDS011;61370;48.594;10.202;2022-09-16T13:19:23;7.00;;;2.63;;
73158;SDS011;61370;48.594;10.202;2022-09-16T13:21:54;3.67;;;2.15;;
73158;SDS011;61370;48.594;10.202;2022-09-16T13:37:44;4.57;;;2.50;;
73158;SDS011;61370;48.594;10.202;2022-09-16T13:40:15;4.82;;;2.15;;
73158;SDS011;61370;48.594;10.202;2022-09-16T13:42:44;5.28;;;2.17;;
73158;SDS011;61370;48.594;10.202;2022-09-16T13:45:28;5.53;;;2.90;;
73158;SDS011;61370;48.594;10.202;2022-09-16T13:47:58;5.07;;;2.20;;
73158;SDS011;61370;48.594;10.202;2022-09-16T13:50:50;4.32;;;2.30;;
73158;SDS011;61370;48.594;10.202;2022-09-16T13:53:29;5.65;;;2.05;;
73158;SDS011;61370;48.594;10.202;2022-09-16T13:56:02;3.78;;;2.20;;
73158;SDS011;61370;48.594;10.202;2022-09-16T13:58:35;3.75;;;1.58;;
73158;SDS011;61370;48.594;10.202;2022-09-16T14:01:07;4.57;;;1.98;;
73158;SDS011;61370;48.594;10.202;2022-09-16T14:03:58;3.90;;;1.52;;
73158;SDS011;61370;48.594;10.202;2022-09-16T14:06:51;3.45;;;1.60;;
73158;SDS011;61370;48.594;10.202;2022-09-16T14:09:34;6.07;;;1.75;;
73158;SDS011;61370;48.594;10.202;2022-09-16T14:12:13;4.97;;;1.85;;
73158;SDS011;61370;48.594;10.202;2022-09-16T14:14:43;5.75;;;1.90;;
73158;SDS011;61370;48.594;10.202;2022-09-16T14:17:14;4.47;;;1.65;;
73158;SDS011;61370;48.594;10.202;2022-09-16T14:19:45;4.40;;;1.65;;
73158;SDS011;61370;48.594;10.202;2022-09-16T14:22:17;4.70;;;1.70;;
73158;SDS011;61370;48.594;10.202;2022-09-16T14:24:48;4.13;;;2.00;;
73158;SDS011;61370;48.594;10.202;2022-09-16T14:27:18;4.05;;;1.55;;
73158;SDS011;61370;48.594;10.202;2022-09-16T14:29:54;5.13;;;1.80;;
73158;SDS011;61370;48.594;10.202;2022-09-16T14:32:28;4.70;;;1.70;;
73158;SDS011;61370;48.594;10.202;2022-09-16T14:34:58;5.45;;;1.67;;
73158;SDS011;61370;48.594;10.202;2022-09-16T14:37:28;4.82;;;1.70;;
73158;SDS011;61370;48.594;10.202;2022-09-16T14:40:00;5.63;;;1.92;;
73158;SDS011;61370;48.594;10.202;2022-09-16T14:42:29;5.43;;;1.60;;
73158;SDS011;61370;48.594;10.202;2022-09-16T14:44:56;3.95;;;1.92;;
73158;SDS011;61370;48.594;10.202;2022-09-16T14:52:33;4.85;;;1.88;;
73158;SDS011;61370;48.594;10.202;2022-09-16T14:55:00;3.10;;;1.52;;
73158;SDS011;61370;48.594;10.202;2022-09-16T14:57:27;6.00;;;1.80;;
73158;SDS011;61370;48.594;10.202;2022-09-16T14:59:56;4.35;;;1.42;;
73158;SDS011;61370;48.594;10.202;2022-09-16T15:02:27;5.65;;;1.60;;
73158;SDS011;61370;48.594;10.202;2022-09-16T15:05:03;3.42;;;1.42;;
73158;SDS011;61370;48.594;10.202;2022-09-16T15:07:44;4.63;;;1.50;;
73158;SDS011;61370;48.594;10.202;2022-09-16T15:10:27;6.38;;;1.60;;
73158;SDS011;61370;48.594;10.202;2022-09-16T15:12:56;3.83;;;1.52;;
73158;SDS011;61370;48.594;10.202;2022-09-16T15:15:25;4.70;;;1.15;;
73158;SDS011;61370;48.594;10.202;2022-09-16T15:17:58;4.45;;;1.33;;
73158;SDS011;61370;48.594;10.202;2022-09-16T15:20:30;4.15;;;1.30;;
73158;SDS011;61370;48.594;10.202;2022-09-16T15:22:59;9.52;;;1.90;;
73158;SDS011;61370;48.594;10.202;2022-09-16T15:25:28;3.22;;;1.20;;
73158;SDS011;61370;48.594;10.202;2022-09-16T15:28:06;5.13;;;1.30;;
73158;SDS011;61370;48.594;10.202;2022-09-16T15:30:44;2.95;;;1.27;;
73158;SDS011;61370;48.594;10.202;2022-09-16T15:36:00;3.08;;;1.30;;
73158;SDS011;61370;48.594;10.202;2022-09-16T15:38:27;2.47;;;1.30;;
73158;SDS011;61370;48.594;10.202;2022-09-16T15:41:04;4.00;;;1.25;;
73158;SDS011;61370;48.594;10.202;2022-09-16T15:43:36;2.88;;;1.30;;
73158;SDS011;61370;48.594;10.202;2022-09-16T15:46:11;3.65;;;1.58;;
73158;SDS011;61370;48.594;10.202;2022-09-16T15:48:42;3.95;;;1.38;;
73158;SDS011;61370;48.594;10.202;2022-09-16T15:56:50;4.95;;;1.50;;
73158;SDS011;61370;48.594;10.202;2022-09-16T16:02:40;4.07;;;1.60;;
73158;SDS011;61370;48.594;10.202;2022-09-16T16:05:18;3.90;;;1.40;;
73158;SDS011;61370;48.594;10.202;2022-09-16T16:07:47;3.35;;;1.42;;
73158;SDS011;61370;48.594;10.202;2022-09-16T16:12:43;5.72;;;1.60;;
73158;SDS011;61370;48.594;10.202;2022-09-16T16:15:11;4.57;;;1.45;;
73158;SDS011;61370;48.594;10.202;2022-09-16T16:17:38;5.72;;;1.70;;
73158;SDS011;61370;48.594;10.202;2022-09-16T16:20:04;3.40;;;1.52;;
73158;SDS011;61370;48.594;10.202;2022-09-16T16:22:31;3.42;;;1.60;;
73158;SDS011;61370;48.594;10.202;2022-09-16T16:24:58;3.63;;;1.73;;
73158;SDS011;61370;48.594;10.202;2022-09-16T16:27:24;4.28;;;1.73;;
73158;SDS011;61370;48.594;10.202;2022-09-16T16:29:50;4.55;;;1.70;;
73158;SDS011;61370;48.594;10.202;2022-09-16T16:32:17;4.25;;;1.40;;
73158;SDS011;61370;48.594;10.202;2022-09-16T16:34:45;7.32;;;1.70;;
73158;SDS011;61370;48.594;10.202;2022-09-16T16:37:16;3.92;;;1.60;;
73158;SDS011;61370;48.594;10.202;2022-09-16T16:39:43;4.85;;;1.67;;
73158;SDS011;61370;48.594;10.202;2022-09-16T16:42:10;5.18;;;1.60;;
73158;SDS011;61370;48.594;10.202;2022-09-16T16:44:37;4.82;;;1.75;;
73158;SDS011;61370;48.594;10.202;2022-09-16T16:47:04;4.78;;;1.52;;
73158;SDS011;61370;48.594;10.202;2022-09-16T16:49:35;3.70;;;1.70;;
73158;SDS011;61370;48.594;10.202;2022-09-16T16:52:03;2.90;;;1.58;;
73158;SDS011;61370;48.594;10.202;2022-09-16T16:54:30;4.53;;;2.17;;
73158;SDS011;61370;48.594;10.202;2022-09-16T16:56:59;5.28;;;1.63;;
73158;SDS011;61370;48.594;10.202;2022-09-16T16:59:26;5.13;;;1.77;;
73158;SDS011;61370;48.594;10.202;2022-09-16T17:01:54;3.70;;;1.60;;
73158;SDS011;61370;48.594;10.202;2022-09-16T17:04:22;4.22;;;1.90;;
73158;SDS011;61370;48.594;10.202;2022-09-16T17:06:49;4.43;;;1.83;;
73158;SDS011;61370;48.594;10.202;2022-09-16T17:09:16;3.85;;;1.55;;
73158;SDS011;61370;48.594;10.202;2022-09-16T17:11:55;3.92;;;1.88;;
73158;SDS011;61370;48.594;10.202;2022-09-16T17:14:24;3.50;;;1.58;;
73158;SDS011;61370;48.594;10.202;2022-09-16T17:16:52;3.92;;;1.73;;
73158;SDS011;61370;48.594;10.202;2022-09-16T17:19:21;3.85;;;2.00;;
73158;SDS011;61370;48.594;10.202;2022-09-16T17:21:49;3.75;;;1.73;;
73158;SDS011;61370;48.594;10.202;2022-09-16T17:24:16;5.55;;;1.90;;
73158;SDS011;61370;48.594;10.202;2022-09-16T17:26:43;5.97;;;2.00;;
73158;SDS011;61370;48.594;10.202;2022-09-16T17:29:10;4.68;;;1.88;;
73158;SDS011;61370;48.594;10.202;2022-09-16T17:31:37;4.00;;;1.80;;
73158;SDS011;61370;48.594;10.202;2022-09-16T17:34:05;4.75;;;1.92;;
73158;SDS011;61370;48.594;10.202;2022-09-16T17:36:36;4.70;;;2.30;;
73158;SDS011;61370;48.594;10.202;2022-09-16T17:39:05;3.85;;;2.00;;
73158;SDS011;61370;48.594;10.202;2022-09-16T17:41:33;4.38;;;1.90;;
73158;SDS011;61370;48.594;10.202;2022-09-16T17:44:05;5.50;;;2.22;;
73158;SDS011;61370;48.594;10.202;2022-09-16T17:46:32;2.78;;;1.65;;
73158;SDS011;61370;48.594;10.202;2022-09-16T17:49:00;7.07;;;2.30;;
73158;SDS011;61370;48.594;10.202;2022-09-16T17:51:29;5.28;;;2.13;;
73158;SDS011;61370;48.594;10.202;2022-09-16T17:53:56;5.15;;;2.20;;
73158;SDS011;61370;48.594;10.202;2022-09-16T17:56:23;4.35;;;1.70;;
73158;SDS011;61370;48.594;10.202;2022-09-16T17:58:50;3.47;;;1.88;;
73158;SDS011;61370;48.594;10.202;2022-09-16T18:01:21;5.43;;;2.05;;
73158;SDS011;61370;48.594;10.202;2022-09-16T18:03:50;5.00;;;2.25;;
73158;SDS011;61370;48.594;10.202;2022-09-16T18:08:48;6.20;;;2.30;;
73158;SDS011;61370;48.594;10.202;2022-09-16T18:11:16;7.97;;;2.42;;
73158;SDS011;61370;48.594;10.202;2022-09-16T18:13:43;3.50;;;2.20;;
73158;SDS011;61370;48.594;10.202;2022-09-16T18:16:15;4.28;;;2.13;;
73158;SDS011;61370;48.594;10.202;2022-09-16T18:18:43;3.92;;;1.80;;
73158;SDS011;61370;48.594;10.202;2022-09-16T18:21:11;4.95;;;2.25;;
73158;SDS011;61370;48.594;10.202;2022-09-16T18:23:43;3.33;;;1.98;;
73158;SDS011;61370;48.594;10.202;2022-09-16T18:26:10;4.60;;;1.98;;